Ashley, Wisconsin
Current Conditions -  °F | °C
As of 7:45 AM on Friday 31 Oct 2014 (Local Time) from KCWA Reporting Station
Scattered Clouds Scattered Clouds  
Wind Chill: -8°   Ceiling: Unl
Heat Index: -2°   Visibility: 10mi
Dew Point: -6°   Wind: 14mph
Humidity: 74%   Direction: 350°N
Pressure: 30.31"   Gusts: 29mph
Location:  44.7605°N, 89.5918°W
Report Text: KCWA 311245Z 35012G25KT 10SM SCT026 M02/M06 A3031
Loading
Personal Weather Stations






























Interactive Weather Map
Tropical Storm Tracking
New forecast layout! Learn more

10-Day Weather Forecast

Advertisements
Track Severe Weather on mobile